createdAt,value
2023-01-21T00:01:10.912Z,21.93
2023-01-21T00:03:40.446Z,23.10
2023-01-21T00:06:09.370Z,26.03
2023-01-21T00:08:37.394Z,25.20
2023-01-21T00:11:09.465Z,25.33
2023-01-21T00:13:37.893Z,24.73
2023-01-21T00:16:06.578Z,21.80
2023-01-21T00:18:34.991Z,24.20
2023-01-21T00:21:04.429Z,27.13
2023-01-21T00:23:32.340Z,22.03
2023-01-21T00:26:00.808Z,25.93
2023-01-21T00:28:32.941Z,26.00
2023-01-21T00:31:02.231Z,23.07
2023-01-21T00:33:31.033Z,24.13
2023-01-21T00:36:00.845Z,23.40
2023-01-21T00:38:30.735Z,22.30
2023-01-21T00:41:02.774Z,24.67
2023-01-21T00:43:30.973Z,26.33
2023-01-21T00:45:59.138Z,24.80
2023-01-21T00:48:28.395Z,25.70
2023-01-21T00:50:59.039Z,28.17
2023-01-21T00:53:27.579Z,23.73
2023-01-21T00:56:00.373Z,26.43
2023-01-21T00:58:28.429Z,29.40
2023-01-21T01:01:01.851Z,27.73
2023-01-21T01:03:29.857Z,23.53
2023-01-21T01:06:02.908Z,24.70
2023-01-21T01:08:30.886Z,23.70
2023-01-21T01:11:00.248Z,27.27
2023-01-21T01:13:28.581Z,24.53
2023-01-21T01:15:58.482Z,26.83
2023-01-21T01:18:27.506Z,25.13
2023-01-21T01:20:55.531Z,25.53
2023-01-21T01:23:23.903Z,24.07
2023-01-21T01:26:00.462Z,23.43
2023-01-21T01:28:29.001Z,24.73
2023-01-21T01:30:57.529Z,24.83
2023-01-21T01:33:25.628Z,23.37
2023-01-21T01:35:53.815Z,26.73
2023-01-21T01:38:23.501Z,23.87
2023-01-21T01:40:53.694Z,26.27
2023-01-21T01:43:25.715Z,22.83
2023-01-21T01:45:54.422Z,24.87
2023-01-21T01:48:27.270Z,25.50
2023-01-21T01:50:57.654Z,25.73
2023-01-21T01:53:27.538Z,24.07
2023-01-21T01:55:56.290Z,24.33
2023-01-21T01:58:26.025Z,24.80
2023-01-21T02:00:54.026Z,23.87
2023-01-21T02:03:39.563Z,25.63
2023-01-21T02:06:07.924Z,22.93
2023-01-21T02:08:36.456Z,22.00
2023-01-21T02:11:07.643Z,22.73
2023-01-21T02:13:36.930Z,23.00
2023-01-21T02:16:16.384Z,24.57
2023-01-21T02:18:51.401Z,21.73
2023-01-21T02:21:53.359Z,23.47
2023-01-21T02:25:14.120Z,22.97
2023-01-21T02:28:12.123Z,24.50
2023-01-21T02:31:21.915Z,23.30
2023-01-21T02:34:03.236Z,21.77
2023-01-21T02:36:44.808Z,23.13
2023-01-21T02:39:21.442Z,28.67
2023-01-21T02:42:03.717Z,24.80
2023-01-21T02:44:39.619Z,26.20
2023-01-21T02:47:19.811Z,24.83
2023-01-21T02:49:54.763Z,23.47
2023-01-21T02:52:26.941Z,23.70
2023-01-21T02:54:57.160Z,22.97
2023-01-21T02:57:40.819Z,23.67
2023-01-21T03:00:14.001Z,23.77
2023-01-21T03:03:06.194Z,24.83
2023-01-21T03:05:52.076Z,23.53
2023-01-21T03:08:22.536Z,22.53
2023-01-21T03:10:56.938Z,21.87
2023-01-21T03:13:48.758Z,20.53
2023-01-21T03:16:42.988Z,24.03
2023-01-21T03:19:15.333Z,19.40
2023-01-21T03:21:45.989Z,24.07
2023-01-21T03:24:15.801Z,20.27
2023-01-21T03:26:47.661Z,22.70
2023-01-21T03:29:18.847Z,22.30
2023-01-21T03:31:50.109Z,22.70
2023-01-21T03:34:20.110Z,22.33
2023-01-21T03:36:54.402Z,23.50
2023-01-21T03:39:30.814Z,21.20
2023-01-21T03:41:58.738Z,21.03
2023-01-21T03:44:27.411Z,23.93
2023-01-21T03:47:06.828Z,22.00
2023-01-21T03:49:38.725Z,25.40
2023-01-21T03:52:09.363Z,23.87
2023-01-21T03:54:37.915Z,26.37
2023-01-21T03:57:05.885Z,23.93
2023-01-21T03:59:33.828Z,24.07
2023-01-21T04:02:01.784Z,21.87
2023-01-21T04:04:29.648Z,24.13
2023-01-21T04:06:57.474Z,21.13
2023-01-21T04:09:26.748Z,24.97
2023-01-21T04:11:54.655Z,21.70
2023-01-21T04:14:22.584Z,22.50
2023-01-21T04:16:50.493Z,23.80
2023-01-21T04:19:18.439Z,23.50
2023-01-21T04:21:46.357Z,23.23
2023-01-21T04:24:14.416Z,24.50
2023-01-21T04:26:43.638Z,25.80
2023-01-21T04:29:11.546Z,23.63
2023-01-21T04:31:39.521Z,24.53
2023-01-21T04:34:07.503Z,24.70
2023-01-21T04:36:35.397Z,25.90
2023-01-21T04:39:03.494Z,22.83
2023-01-21T04:41:31.454Z,23.27
2023-01-21T04:44:00.765Z,22.87
2023-01-21T04:46:28.857Z,22.10
2023-01-21T04:48:56.733Z,21.47
2023-01-21T04:51:24.639Z,20.83
2023-01-21T04:53:52.518Z,24.23
2023-01-21T04:56:20.441Z,22.00
2023-01-21T04:58:48.293Z,21.13
2023-01-21T05:01:17.614Z,20.67
2023-01-21T05:03:45.483Z,23.23
2023-01-21T05:06:13.364Z,22.67
2023-01-21T05:08:41.180Z,26.07
2023-01-21T05:11:09.595Z,21.33
2023-01-21T05:13:37.546Z,23.73
2023-01-21T05:16:08.429Z,24.10
2023-01-21T05:18:38.007Z,23.33
2023-01-21T05:21:06.559Z,27.80
2023-01-21T05:23:34.540Z,26.97
2023-01-21T05:26:02.469Z,27.20
2023-01-21T05:28:30.410Z,24.53
2023-01-21T05:31:02.246Z,25.57
2023-01-21T05:33:31.932Z,21.17
2023-01-21T05:36:02.214Z,20.73
2023-01-21T05:38:30.697Z,23.53
2023-01-21T05:40:59.125Z,26.57
2023-01-21T05:43:27.462Z,20.33
2023-01-21T05:45:55.698Z,20.97
2023-01-21T05:48:23.903Z,21.03
2023-01-21T05:50:52.123Z,19.30
2023-01-21T05:53:21.799Z,23.73
2023-01-21T05:55:52.724Z,21.23
2023-01-21T05:58:20.851Z,24.17
2023-01-21T06:00:49.361Z,20.17
2023-01-21T06:03:18.551Z,18.30
2023-01-21T06:05:46.832Z,20.70
2023-01-21T06:08:14.687Z,26.17
2023-01-21T06:10:43.936Z,28.03
2023-01-21T06:13:13.385Z,26.67
2023-01-21T06:15:41.363Z,24.60
2023-01-21T06:18:10.365Z,23.57
2023-01-21T06:20:38.299Z,26.10
2023-01-21T06:23:07.187Z,23.33
2023-01-21T06:25:35.477Z,25.40
2023-01-21T06:28:04.773Z,23.43
2023-01-21T06:30:32.696Z,23.27
2023-01-21T06:33:00.535Z,23.60
2023-01-21T06:35:28.448Z,22.57
2023-01-21T06:37:56.391Z,26.20
2023-01-21T06:40:24.307Z,26.83
2023-01-21T06:42:53.807Z,21.80
2023-01-21T06:45:23.085Z,23.80
2023-01-21T06:47:51.098Z,22.77
2023-01-21T06:50:19.676Z,24.17
2023-01-21T06:52:49.036Z,21.37
2023-01-21T06:55:17.991Z,23.07
2023-01-21T06:57:45.973Z,22.57
2023-01-21T07:00:15.396Z,23.43
2023-01-21T07:02:44.985Z,22.33
2023-01-21T07:05:14.850Z,20.03
2023-01-21T07:07:43.039Z,22.17
2023-01-21T07:10:12.370Z,20.50
2023-01-21T07:12:40.276Z,19.27
2023-01-21T07:15:09.497Z,22.03
2023-01-21T07:17:37.419Z,19.90
2023-01-21T07:20:07.656Z,22.37
2023-01-21T07:22:35.952Z,22.07
2023-01-21T07:25:03.860Z,22.03
2023-01-21T07:27:31.768Z,22.40
2023-01-21T07:29:59.713Z,22.90
2023-01-21T07:32:27.613Z,25.87
2023-01-21T07:34:55.511Z,23.17
2023-01-21T07:37:24.813Z,27.37
2023-01-21T07:39:54.617Z,23.30
2023-01-21T07:42:22.702Z,21.20
2023-01-21T07:44:50.667Z,20.77
2023-01-21T07:47:18.615Z,27.00
2023-01-21T07:49:46.563Z,20.50
2023-01-21T07:52:14.521Z,26.93
2023-01-21T07:54:43.819Z,23.17
2023-01-21T07:57:11.753Z,23.83
2023-01-21T07:59:39.710Z,23.60
2023-01-21T08:02:07.960Z,28.17
2023-01-21T08:04:35.913Z,27.17
2023-01-21T08:07:11.950Z,24.43
2023-01-21T08:09:41.244Z,25.30
2023-01-21T08:12:10.823Z,25.20
2023-01-21T08:14:39.496Z,22.90
2023-01-21T08:17:07.510Z,24.27
2023-01-21T08:19:35.532Z,27.03
2023-01-21T08:22:03.391Z,31.33
2023-01-21T08:24:31.315Z,23.83
2023-01-21T08:26:59.954Z,22.90
2023-01-21T08:29:29.587Z,22.73
2023-01-21T08:31:58.466Z,23.87
2023-01-21T08:34:26.529Z,24.33
2023-01-21T08:36:54.630Z,23.87
2023-01-21T08:39:22.691Z,26.17
2023-01-21T08:41:50.585Z,30.27
2023-01-21T08:44:18.499Z,28.43
2023-01-21T08:46:47.776Z,34.07
2023-01-21T08:49:15.795Z,31.13
2023-01-21T08:51:43.948Z,27.77
2023-01-21T08:54:11.936Z,30.17
2023-01-21T08:56:39.887Z,32.20
2023-01-21T08:59:07.838Z,31.17
2023-01-21T09:01:36.717Z,33.07
2023-01-21T09:04:06.197Z,35.03
2023-01-21T09:06:34.888Z,34.73
2023-01-21T09:09:02.811Z,32.40
2023-01-21T09:11:31.245Z,32.80
2023-01-21T09:14:03.372Z,34.80
2023-01-21T09:16:32.418Z,35.17
2023-01-21T09:19:00.526Z,30.17
2023-01-21T09:21:30.479Z,32.23
2023-01-21T09:23:58.510Z,35.30
2023-01-21T09:26:26.961Z,38.07
2023-01-21T09:28:56.666Z,29.20
2023-01-21T09:31:25.808Z,34.03
2023-01-21T09:33:56.804Z,37.93
2023-01-21T09:36:26.658Z,29.63
2023-01-21T09:38:56.243Z,34.83
2023-01-21T09:41:28.530Z,35.93
2023-01-21T09:44:04.208Z,33.70
2023-01-21T09:46:39.845Z,31.17
2023-01-21T09:49:15.952Z,31.90
2023-01-21T09:51:52.366Z,28.77
2023-01-21T09:54:26.799Z,33.77
2023-01-21T09:57:11.486Z,28.97
2023-01-21T09:59:52.929Z,28.03
2023-01-21T10:02:29.638Z,29.63
2023-01-21T10:05:12.712Z,29.73
2023-01-21T10:07:44.724Z,29.97
2023-01-21T10:10:24.438Z,26.73
2023-01-21T10:13:06.693Z,31.33
2023-01-21T10:15:43.307Z,29.87
2023-01-21T10:18:14.842Z,25.53
2023-01-21T10:20:48.864Z,28.53
2023-01-21T10:23:21.507Z,28.03
2023-01-21T10:25:51.660Z,29.60
2023-01-21T10:28:23.913Z,27.03
2023-01-21T10:30:53.933Z,27.13
2023-01-21T10:33:24.356Z,27.80
2023-01-21T10:36:08.671Z,27.23
2023-01-21T10:38:42.337Z,28.23
2023-01-21T10:41:27.561Z,26.93
2023-01-21T10:44:03.218Z,26.33
2023-01-21T10:46:41.400Z,27.23
2023-01-21T10:49:22.123Z,24.67
2023-01-21T10:51:54.369Z,25.80
2023-01-21T10:54:27.718Z,23.07
2023-01-21T10:57:04.500Z,27.27
2023-01-21T10:59:34.400Z,23.23
2023-01-21T11:02:22.389Z,24.37
2023-01-21T11:04:50.589Z,26.50
2023-01-21T11:07:21.970Z,26.23
2023-01-21T11:09:50.274Z,32.83
2023-01-21T11:12:21.627Z,29.37
2023-01-21T11:14:51.705Z,27.50
2023-01-21T11:17:35.020Z,28.10
2023-01-21T11:20:05.069Z,24.73
2023-01-21T11:22:33.883Z,25.87
2023-01-21T11:25:02.743Z,27.23
2023-01-21T11:27:38.103Z,27.43
2023-01-21T11:30:21.082Z,24.73
2023-01-21T11:32:55.721Z,22.90
2023-01-21T11:35:24.530Z,23.10
2023-01-21T11:37:52.560Z,20.53
2023-01-21T11:40:24.978Z,21.33
2023-01-21T11:42:56.031Z,25.77
2023-01-21T11:45:28.733Z,24.47
2023-01-21T11:47:57.017Z,25.97
2023-01-21T11:50:28.955Z,24.67
2023-01-21T11:53:15.713Z,22.77
2023-01-21T11:55:46.628Z,25.33
2023-01-21T11:58:24.698Z,24.57
2023-01-21T12:00:56.745Z,20.90
2023-01-21T12:03:27.835Z,20.43
2023-01-21T12:05:55.890Z,21.47
2023-01-21T12:08:28.158Z,22.57
2023-01-21T12:10:58.588Z,22.43
2023-01-21T12:13:38.118Z,19.60
2023-01-21T12:16:31.443Z,18.43
2023-01-21T12:19:27.523Z,28.43
2023-01-21T12:22:32.726Z,20.03
2023-01-21T12:25:19.423Z,22.30
2023-01-21T12:27:57.020Z,19.80
2023-01-21T12:30:41.169Z,20.13
2023-01-21T12:33:16.663Z,21.33
2023-01-21T12:35:50.180Z,27.80
2023-01-21T12:38:21.529Z,22.90
2023-01-21T12:40:56.208Z,19.80
2023-01-21T12:43:28.616Z,21.60
2023-01-21T12:46:03.870Z,17.37
2023-01-21T12:48:36.748Z,22.57
2023-01-21T12:51:07.937Z,18.43
2023-01-21T12:53:41.497Z,22.23
2023-01-21T12:56:20.772Z,21.47
2023-01-21T12:58:53.290Z,29.03
2023-01-21T13:01:43.747Z,18.03
2023-01-21T13:04:29.918Z,22.03
2023-01-21T13:07:03.921Z,28.50
2023-01-21T13:09:38.793Z,24.17
2023-01-21T13:12:14.099Z,24.67
2023-01-21T13:14:48.264Z,26.40
2023-01-21T13:17:21.446Z,27.30
2023-01-21T13:19:50.368Z,34.33
2023-01-21T13:22:30.085Z,26.97
2023-01-21T13:25:11.905Z,31.50
2023-01-21T13:27:47.795Z,25.63
2023-01-21T13:30:25.871Z,34.00
2023-01-21T13:33:08.316Z,33.70
2023-01-21T13:35:44.193Z,28.50
2023-01-21T13:38:21.210Z,33.67
2023-01-21T13:40:55.470Z,25.17
2023-01-21T13:43:38.180Z,24.03
2023-01-21T13:46:19.753Z,27.57
2023-01-21T13:49:04.106Z,25.10
2023-01-21T13:51:43.738Z,27.60
2023-01-21T13:54:42.359Z,27.33
2023-01-21T13:57:25.548Z,23.83
2023-01-21T13:59:57.710Z,22.73
2023-01-21T14:02:32.877Z,26.97
2023-01-21T14:05:07.116Z,26.10
2023-01-21T14:07:40.075Z,23.50
2023-01-21T14:10:15.464Z,21.67
2023-01-21T14:13:15.319Z,27.73
2023-01-21T14:15:53.862Z,25.83
2023-01-21T14:18:40.255Z,26.97
2023-01-21T14:21:22.922Z,27.63
2023-01-21T14:24:19.684Z,26.37
2023-01-21T14:27:05.517Z,31.23
2023-01-21T14:29:37.548Z,25.27
2023-01-21T14:32:14.052Z,23.23
2023-01-21T14:34:49.581Z,25.87
2023-01-21T14:37:27.366Z,23.37
2023-01-21T14:40:05.576Z,22.17
2023-01-21T14:42:45.184Z,19.83
2023-01-21T14:45:14.785Z,23.20
2023-01-21T14:47:46.109Z,20.43
2023-01-21T14:50:52.066Z,17.97
2023-01-21T14:53:26.607Z,16.87
2023-01-21T14:56:09.340Z,17.17
2023-01-21T14:58:37.868Z,15.93
2023-01-21T15:01:07.837Z,15.47
2023-01-21T15:03:48.660Z,17.67
2023-01-21T15:06:23.449Z,15.80
2023-01-21T15:08:54.415Z,15.30
2023-01-21T15:11:27.659Z,15.73
2023-01-21T15:14:07.360Z,16.87
2023-01-21T15:16:37.204Z,16.77
2023-01-21T15:19:32.778Z,15.07
2023-01-21T15:22:41.767Z,17.57
2023-01-21T15:25:34.144Z,14.33
2023-01-21T15:28:43.591Z,14.70
2023-01-21T15:31:14.262Z,16.37
2023-01-21T15:33:47.309Z,15.87
2023-01-21T15:36:25.816Z,15.53
2023-01-21T15:39:17.064Z,15.20
2023-01-21T15:41:56.446Z,17.00
2023-01-21T15:44:37.409Z,17.60
2023-01-21T15:47:19.792Z,15.57
2023-01-21T15:50:00.174Z,20.70
2023-01-21T15:52:42.346Z,16.63
2023-01-21T15:55:27.253Z,17.80
2023-01-21T15:58:03.934Z,18.30
2023-01-21T16:00:35.455Z,16.73
2023-01-21T16:03:13.588Z,23.47
2023-01-21T16:05:51.048Z,19.27
2023-01-21T16:08:27.973Z,20.30
2023-01-21T16:11:22.778Z,27.00
2023-01-21T16:13:56.765Z,24.27
2023-01-21T16:16:38.376Z,30.53
2023-01-21T16:19:09.563Z,13.27
2023-01-21T16:21:40.085Z,15.97
2023-01-21T16:24:12.965Z,18.30
2023-01-21T16:26:42.206Z,15.03
2023-01-21T16:29:13.151Z,14.73
2023-01-21T16:31:48.397Z,13.97
2023-01-21T16:34:23.897Z,23.87
2023-01-21T16:36:51.894Z,12.73
2023-01-21T16:39:20.633Z,14.50
2023-01-21T16:42:01.500Z,15.77
2023-01-21T16:44:29.917Z,18.53
2023-01-21T16:46:57.861Z,18.33
2023-01-21T16:49:27.131Z,16.07
2023-01-21T16:51:57.746Z,17.57
2023-01-21T16:54:27.737Z,15.20
2023-01-21T16:57:00.021Z,18.23
2023-01-21T16:59:30.551Z,14.77
2023-01-21T17:02:00.561Z,18.00
2023-01-21T17:04:30.348Z,19.23
2023-01-21T17:06:58.966Z,18.20
2023-01-21T17:09:30.716Z,20.67
2023-01-21T17:12:04.735Z,20.13
2023-01-21T17:14:34.229Z,20.10
2023-01-21T17:17:05.058Z,18.33
2023-01-21T17:19:35.788Z,18.67
2023-01-21T17:22:12.893Z,16.27
2023-01-21T17:24:44.002Z,19.73
2023-01-21T17:27:20.003Z,20.20
2023-01-21T17:29:47.895Z,15.70
2023-01-21T17:32:26.670Z,18.23
2023-01-21T17:35:11.196Z,20.77
2023-01-21T17:37:44.846Z,21.80
2023-01-21T17:40:28.895Z,21.73
2023-01-21T17:42:59.935Z,19.80
2023-01-21T17:45:31.738Z,18.07
2023-01-21T17:48:08.977Z,18.17
2023-01-21T17:50:38.296Z,25.37
2023-01-21T17:53:09.965Z,26.10
2023-01-21T17:55:38.873Z,28.53
2023-01-21T17:58:44.562Z,22.90
2023-01-21T18:01:13.065Z,19.57
2023-01-21T18:03:41.145Z,25.53
2023-01-21T18:06:17.654Z,25.33
2023-01-21T18:08:45.585Z,18.07
2023-01-21T18:11:16.506Z,17.17
2023-01-21T18:13:45.789Z,16.13
2023-01-21T18:16:13.864Z,27.93
2023-01-21T18:18:41.976Z,29.83
2023-01-21T18:21:18.872Z,35.67
2023-01-21T18:23:46.986Z,25.40
2023-01-21T18:26:21.328Z,25.47
2023-01-21T18:28:50.701Z,20.50
2023-01-21T18:31:18.763Z,16.27
2023-01-21T18:33:46.645Z,18.23
2023-01-21T18:36:14.512Z,14.90
2023-01-21T18:38:42.398Z,18.37
2023-01-21T18:41:13.389Z,12.70
2023-01-21T18:43:41.831Z,21.13
2023-01-21T18:46:13.473Z,18.70
2023-01-21T18:48:42.948Z,26.13
2023-01-21T18:51:11.157Z,14.27
2023-01-21T18:53:39.120Z,12.33
2023-01-21T18:56:10.917Z,14.33
2023-01-21T18:58:38.878Z,12.73
2023-01-21T19:01:21.413Z,12.87
2023-01-21T19:03:53.433Z,14.03
2023-01-21T19:06:21.781Z,16.77
2023-01-21T19:08:49.706Z,15.07
2023-01-21T19:11:18.084Z,19.10
2023-01-21T19:13:46.081Z,11.00
2023-01-21T19:16:17.230Z,12.90
2023-01-21T19:18:45.478Z,12.10
2023-01-21T19:21:14.806Z,11.70
2023-01-21T19:23:42.735Z,18.70
2023-01-21T19:26:13.748Z,16.23
2023-01-21T19:28:41.765Z,14.83
2023-01-21T19:31:09.729Z,18.43
2023-01-21T19:33:37.739Z,9.30
2023-01-21T19:36:14.986Z,15.50
2023-01-21T19:38:51.806Z,20.17
2023-01-21T19:41:19.829Z,10.70
2023-01-21T19:43:47.954Z,13.13
2023-01-21T19:46:16.286Z,14.87
2023-01-21T19:48:44.423Z,17.30
2023-01-21T19:51:12.505Z,17.67
2023-01-21T19:53:40.505Z,12.77
2023-01-21T19:56:15.152Z,12.93
2023-01-21T19:58:43.190Z,19.73
2023-01-21T20:01:12.024Z,24.33
2023-01-21T20:03:48.140Z,21.37
2023-01-21T20:06:23.682Z,70.87
2023-01-21T20:08:51.824Z,45.83
2023-01-21T20:11:21.962Z,26.47
2023-01-21T20:13:50.036Z,19.97
2023-01-21T20:16:20.881Z,19.23
2023-01-21T20:18:49.850Z,16.93
2023-01-21T20:21:18.056Z,11.40
2023-01-21T20:23:46.134Z,13.50
2023-01-21T20:26:18.771Z,12.07
2023-01-21T20:28:51.373Z,16.70
2023-01-21T20:31:20.170Z,25.13
2023-01-21T20:33:48.416Z,24.97
2023-01-21T20:36:20.024Z,17.70
2023-01-21T20:38:48.099Z,13.17
2023-01-21T20:41:16.027Z,11.40
2023-01-21T20:43:44.291Z,13.47
2023-01-21T20:46:18.127Z,13.43
2023-01-21T20:48:46.273Z,13.43
2023-01-21T20:51:14.410Z,12.47
2023-01-21T20:53:42.378Z,8.97
2023-01-21T20:56:21.915Z,9.57
2023-01-21T20:58:50.199Z,8.97
2023-01-21T21:01:21.731Z,9.73
2023-01-21T21:03:50.447Z,8.23
2023-01-21T21:06:19.886Z,9.73
2023-01-21T21:08:48.205Z,9.97
2023-01-21T21:11:17.170Z,8.43
2023-01-21T21:13:48.095Z,10.00
2023-01-21T21:16:20.808Z,8.80
2023-01-21T21:18:49.228Z,10.77
2023-01-21T21:21:18.153Z,11.43
2023-01-21T21:23:46.756Z,10.67
2023-01-21T21:26:18.947Z,9.97
2023-01-21T21:28:47.901Z,10.83
2023-01-21T21:31:17.068Z,11.70
2023-01-21T21:33:46.774Z,8.57
2023-01-21T21:36:15.859Z,9.70
2023-01-21T21:38:44.540Z,13.43
2023-01-21T21:41:34.871Z,15.30
2023-01-21T21:44:02.815Z,13.00
2023-01-21T21:46:48.431Z,14.97
2023-01-21T21:49:17.695Z,10.37
2023-01-21T21:51:46.040Z,12.13
2023-01-21T21:54:16.071Z,15.23
2023-01-21T21:56:44.332Z,15.03
2023-01-21T21:59:12.905Z,10.60
2023-01-21T22:01:42.765Z,12.00
2023-01-21T22:04:11.218Z,18.90
2023-01-21T22:06:40.696Z,17.07
2023-01-21T22:09:08.970Z,15.57
2023-01-21T22:11:37.198Z,14.87
2023-01-21T22:14:05.153Z,15.13
2023-01-21T22:16:33.659Z,9.83
2023-01-21T22:19:02.430Z,10.20
2023-01-21T22:21:33.198Z,7.07
2023-01-21T22:24:02.856Z,9.10
2023-01-21T22:26:30.771Z,9.23
2023-01-21T22:28:58.994Z,8.90
2023-01-21T22:31:28.724Z,8.53
2023-01-21T22:33:57.805Z,9.23
2023-01-21T22:36:28.155Z,8.10
2023-01-21T22:38:56.154Z,9.07
2023-01-21T22:41:26.394Z,13.47
2023-01-21T22:43:54.704Z,11.43
2023-01-21T22:46:24.293Z,23.13
2023-01-21T22:48:53.588Z,8.13
2023-01-21T22:51:22.820Z,8.50
2023-01-21T22:53:50.917Z,8.13
2023-01-21T22:56:21.194Z,6.87
2023-01-21T22:58:51.616Z,7.13
2023-01-21T23:01:25.160Z,7.87
2023-01-21T23:03:53.313Z,8.87
2023-01-21T23:06:21.408Z,6.77
2023-01-21T23:08:49.484Z,8.47
2023-01-21T23:11:18.607Z,8.27
2023-01-21T23:13:47.063Z,9.70
2023-01-21T23:16:18.515Z,7.97
2023-01-21T23:18:46.450Z,8.70
2023-01-21T23:21:16.999Z,9.20
2023-01-21T23:23:45.399Z,8.27
2023-01-21T23:26:14.848Z,7.00
2023-01-21T23:28:42.994Z,7.77
2023-01-21T23:31:14.164Z,7.03
2023-01-21T23:33:44.047Z,7.17
2023-01-21T23:36:13.854Z,5.90
2023-01-21T23:38:41.932Z,6.87
2023-01-21T23:41:11.677Z,7.13
2023-01-21T23:43:39.983Z,8.00
2023-01-21T23:46:09.173Z,6.60
2023-01-21T23:48:37.136Z,7.97
2023-01-21T23:51:07.911Z,8.67
2023-01-21T23:53:36.134Z,5.87
2023-01-21T23:56:05.243Z,6.77
2023-01-21T23:58:33.314Z,6.47
